Lantana, Texas
Current Conditions -  °F | °C
As of 5:53 PM on Monday 24 Nov 2014 (Local Time) from KDTO Reporting Station
Clear Clear  
Wind Chill: 54°   Ceiling: Unl
Heat Index: 54°   Visibility: 10mi
Dew Point: 21°   Wind: 5mph
Humidity: 28%   Direction: 270°W
Pressure: 30.06"   Gusts: NA
Location:  33.108°N, 97.1641°W
Report Text: KDTO 242353Z 27004KT 10SM CLR 12/M06 A3006 RMK AO2 SLP179 T01221061 10161 20117 53010
Loading
Personal Weather Stations






























Interactive Weather Map New forecast layout! Learn more

10-Day Weather Forecast

Advertisements
Track Severe Weather on mobile